San Gabriel, CA (91775)

10:25 PM PDT on July 04, 2015 (GMT -0700)
San Marino | | Change Station
CLOSE
Current Station
Personal Weather Station
Location: San Marino, CA
Elevation: 574 ft
Nearby Weather Stations

Elev 574 ft 34.12 °N, 118.11 °W | Updated 8 seconds ago

Partly Cloudy
Partly Cloudy
66.4 °F
Feels Like 66.4 °F
N
2.0
Wind Variable Wind from ENE
Gusts 4.0 mph

Today
High -- | Low -- °F
--% Chance of Precip.
Yesterday
High -- | Low -- °F
Precip. -- in
5:45 AM 8:07 PM
Waning Gibbous, 87% visible
Pressure 29.93 in
Visibility 4.0 miles
Clouds Overcast 900 ft
Dew Point 59 °F
Humidity 78%
Rainfall 0.00 in
Snow Depth Not available.
UV 0 out of 12
Pollen 3.60 out of 12
Air Quality Not available.
Flu Activity Not available.
SPECI KCQT 050512Z AUTO VRB03KT 4SM HZ OVC009 18/15 A2993 RMK AO2 T01780150

More Conditions Fewer Conditions

Pressure 29.93 in
Visibility 4.0 miles
Clouds Overcast 900 ft
Dew Point 59 °F
Humidity 78%
Rainfall 0.00 in
Snow Depth Not available.
UV 0 out of 12
Pollen 3.60 out of 12
Air Quality Not available.
Flu Activity Not available.
SPECI KCQT 050512Z AUTO VRB03KT 4SM HZ OVC009 18/15 A2993 RMK AO2 T01780150

More Conditions Fewer Conditions

10-Day Weather Forecast

×

Almanac

Astronomy

Jul. 04, 2015 Rise Set
Actual Time
Civil Twilight
Nautical Twilight
Astronomical Twilight
Moon
Length of Visible Light
Length of Day
Tomorrow will be .
, % of the Moon is Illuminated

Today's Extremes

State Highs State Lows

Community

WunderPhotos

Upload Photos

1,835,203 photos uploaded!

WunderBlogs® & News

Nearby

Air Quality

  Air Quality AQ Index Pollutant
Not available.

Snow Depth

Station Depth Elevation

Earthquake Activity

City Distance Mag. Time & Date
Minimum magnitude displayed is 2.5.

Coastal Water Temperatures

Place Temperature

Stations

Nearby Weather Stations

Station Location Temp. Windchill Dew Point Humidity Wind Precip. Elev Updated Type